Omak, Washington
Current Conditions -  °F | °C
As of 3:53 PM on Monday 20 Oct 2014 (Local Time) from KOMK Reporting Station
Light Rain Light Rain  
Wind Chill: 56°   Ceiling: 8500
Heat Index: 56°   Visibility: 10mi
Dew Point: 51°   Wind: 5mph
Humidity: 84%   Direction: 160°SSE
Pressure: 29.75"   Gusts: NA
Location:  48.41°N, 119.53°W
Report Text: KOMK 202253Z AUTO 16004KT 10SM -RA OVC085 13/11 A2975 RMK AO2 RAB11 SLP078 P0000 T01330106
Loading
Personal Weather Stations






























Interactive Weather Map New forecast layout! Learn more

10-Day Weather Forecast

Advertisements
Track Severe Weather on mobile